AREA preflight bulletin
Updated "live" 27 Jan 2020, 23:58

back to the map




METAR og TAF


NARSARSUAQ
  AKTUEL BGBW 272350Z AUTO 05006KT 9999NDV FEW046/// BKN065/// BKN110/// M10/M16 Q0992=
  TAF 9 timer BGBW 271954Z 2719/2720 CNL=

QAQORTOQ
  AKTUEL BGJH 272350Z AUTO 00000KT //// ///////// M09/M13 Q0991=

PAAMIUT
  AKTUEL BGPT 272350Z AUTO 35011KT 9999NDV NCD M10/M18 Q0997=

NARSAQ
  AKTUEL BGNS 272350Z AUTO 05006KT //// ///////// M07/M12 Q0991=

NANORTALIK
  AKTUEL BGNN 272350Z AUTO 31007KT //// ///////// M06/M15 Q0992=

NUUK
  AKTUEL BGGH 272350Z 36006KT 7000 -SHSN SCT016 BKN030 BKN055 M11/M13 Q0999=
  TAF 9 timer BGGH 272257Z 2800/2806 36005KT 9999 BKN060 TEMPO 2800/2806 2500 -SHSN BKN012=

KANGERLUSSUAQ
  AKTUEL BGSF 272350Z AUTO 06007KT 9999NDV -SG FEW027/// BKN039/// OVC048/// M15/M19 Q0999=
  TAF 24 timer BGSF 272256Z 2800/2906 06005KT 9999 BKN040 TEMPO 2800/2804 4000 -SN BKN020 BECMG 2804/2807 SCT050 TEMPO 2807/2906 BKN050=


SIGMETS:

SONDRESTROM FIR
  SIGMET BGGL SIGMET U07 VALID 272140/280140 BGSF- BGGL NUUK FIR SEV TURB FCST AT 2140Z WI N7151 W02426 - N7140 W02237 - N6942 W02318 - N6828 W02611 - N6546 W03542 - N6655 W03653 - N7151 W02426 SFC/FL130 STNR WKN=

SNOWTAM:

ICAO
BGGH (NUUK)

valid from:
2001272305

Notam_id:
0459

SNOWTAM 0459 A) BGGH B) 01272305 C) 05 F) 48/48/48 G) 2/2/2 H) 5/5/5 N) 4/GOOD R) 8/POOR T) RWY CONTAMINATION 25 PERCENT 1MM DRY SNOW AND 10 PERCENT 1MM COMPACTED SNOW - MEASURED FRICTION COEFFICIENTS 80/80/80 TAP


ICAO
BGSF (KANGERLUSSUAQ)

valid from:
2001272014

Notam_id:
0303

SNOWTAM 0303 A) BGSF B) 01272014 C) 09 F) 48/48/48 G) 6/6/6 H) 3/5/5 N) A B C/48/MEDIUM D/48/POOR R) N E/48/POOR W/487/POOR HELIPAD/48/POOR T) MEASURED FRICTION COEFFICIENTS 35/50/50 TAP, RWY CONTAMINATION 100 PERCENT 1MM DRY SNOW AND 10 PERCENT 5MM COMPACTED OR ROLLED SNOW, SWEEPING IN PROGRESS



NOTAM/SNOWTAM for operationel use has to be confirmed with the
nearest AIS Briefing Office prior to a flight.

ICAO
BGBW (NARSARSUAQ)

FIR
BGGL

Notam_id:
BGA0608/19

valid from:
1912231316

E) SEA RESCUE BOAT TAKEN ASHORE. CAN BE LAUNCHED WITHIN 45 MINS IN CASE OF EMERGENCY - ICE CONDITIONS IN HARBOUR AND WEATHER PERMITTING.

valid to:
2005011400EST




ICAO
BGBW (NARSARSUAQ)

FIR
BGGL

Notam_id:
BGA0609/19

valid from:
2001010000

E) AD CATEGORY FOR FIREFIGHTING: CAT 5 PPR 3 HR FOR AC WITH MTOM OF 10 TONS OR MORE OR WHICH CARRY 20 PASSENGER SEATS OR MORE, EXCEPT FOR SCHEDULED COMMERCIAL FLIGHTS. CAT 6 OR 7 PN 4 HOURS. OUTSIDE HOURS OF SERVICE PPR MNM 8 HR.

valid to:
PERM




ICAO
BGJH (QAQORTOQ)

FIR
BGGL

Notam_id:
BGC0132/19

valid from:
1912231307

E) TLOF EDGE CHANGED (GREEN CIRCLE).

valid to:
PERM




ICAO
BGJH (QAQORTOQ)

FIR
BGGL

Notam_id:
BGC0133/19

valid from:
1912231334

E) FATO AREA LGT CHARACTERISTICS, LOCATION: 15 GREEN EDGE LIGHTS.

valid to:
PERM


Replacing:
BGC0131/19

ICAO
BGPT (PAAMIUT)

FIR
BGGL

Notam_id:
BGB0117/20

valid from:
2001241738

E) OBST LIGHTS ON WDI AT THR RWY 17 U/S.

valid to:
2001311800EST


Replacing:
BGB0075/20

ICAO
BGNS (NARSAQ)

FIR
BGGL

Notam_id:
BGC0018/20

valid from:
2001231331

E) FATO AREA LGT CHARATERISTICS, LOCATION: GREEN, EDGE

valid to:
PERM




ICAO
BGNS (NARSAQ)

FIR
BGGL

Notam_id:
BGC0128/19

valid from:
1912021441

E) TUNULLIARFIK TRANSMISSION LINE MAST OBST LIGHTS OUT OF SERVICE. PSN 605254N0455957W HGT 922FT MSL.

valid to:
2001312000


Replacing:
BGC0125/19

ICAO
BGNN (NANORTALIK)

FIR
BGGL

Notam_id:
BGC0019/20

valid from:
2001231336

E) FATO AREA LGT CHARATERISTICS, LOCATION: GREEN, EDGE.

valid to:
PERM




ICAO
BGGL (SONDRESTROM FIR)

FIR
BGGL

Notam_id:
BGA0483/19

valid from:
1909271038

E) NUUK INFORMATION FREQ 5526 KHZ PSN 6334N03707W KULUSUK U/S.

valid to:
2004011800




ICAO
BGGL (SONDRESTROM FIR)

FIR
BGGL

Notam_id:
BGA0001/20

valid from:
2001010613

E) CHECKLIST YEAR=2018 0199 YEAR=2019 0483 0584 0601 0608 0609 YEAR=2020 NIL LATEST PUBLICATIONS AIP AIRAC AMDT IFR 008/2019 EFFECTIVE DATE 05 DEC 19 AIP AMDT IFR 003/2018 EFFECTIVE DATE 15 MAR 18 AIP SUP IFR 002/2019 EFFECTIVE DATE 08 NOV 19 AIC IFR A001/2019 EFFECTIVE DATE 17 JAN 19 AIC CHECKLIST AIP IFR A001/2016 A002/2016 A001/2017 A002/2017 A002/2018 A003/2018 A004/2018 A001/2019 AIP VFR NIL AIP MIL NIL SUP CHECKLIST AIP IFR NIL AIP VFR NIL AIP MIL NIL

valid to:
2002010613EST


Replacing:
BGA0594/19

ICAO
BGGL (SONDRESTROM FIR)

FIR
BGGL

Notam_id:
BGB0001/20

valid from:
2001010614

E) CHECKLIST YEAR=2019 0606 0677 0696 0734 0765 0787 0801 0808 0817 0819 0827 0828 0829 0831 0833 0836 YEAR=2020 NIL LATEST PUBLICATIONS AIP AIRAC AMDT IFR 008/2019 EFFECTIVE DATE 05 DEC 19 AIP AMDT IFR 003/2018 EFFECTIVE DATE 15 MAR 18 AIP SUP IFR 002/2019 EFFECTIVE DATE 08 NOV 19 AIC IFR A001/2019 EFFECTIVE DATE 17 JAN 19 AIC CHECKLIST AIP IFR A001/2016 A002/2016 A001/2017 A002/2017 A002/2018 A003/2018 A004/2018 A001/2019 AIP VFR NIL AIP MIL NIL SUP CHECKLIST AIP IFR NIL AIP VFR NIL AIP MIL NIL

valid to:
2002010614EST


Replacing:
BGB0781/19

ICAO
BGGL (SONDRESTROM FIR)

FIR
BGGL

Notam_id:
BGC0001/20

valid from:
2001010614

E) CHECKLIST YEAR=2019 0128 0132 0133 0134 YEAR=2020 NIL LATEST PUBLICATIONS AIP AIRAC AMDT IFR 008/2019 EFFECTIVE DATE 05 DEC 19 AIP AMDT IFR 003/2018 EFFECTIVE DATE 15 MAR 18 AIP SUP IFR 002/2019 EFFECTIVE DATE 08 NOV 19 AIC IFR A001/2019 EFFECTIVE DATE 17 JAN 19 AIC CHECKLIST AIP IFR A001/2016 A002/2016 A001/2017 A002/2017 A002/2018 A003/2018 A004/2018 A001/2019 AIP VFR NIL AIP MIL NIL SUP CHECKLIST AIP IFR NIL AIP VFR NIL AIP MIL NIL

valid to:
2002010614EST


Replacing:
BGC0127/19

ICAO
BGGL (SONDRESTROM FIR)

FIR
BGGL

Notam_id:
BGA0010/20

valid from:
2002270000

E) AIP GREENLAND AIRAC AMDT EFFECTIVE DATE 27 FEB 2020: NIL

valid to:
2003112359




ICAO
BGGL (SONDRESTROM FIR)

FIR
BGGL

Notam_id:
BGA0199/18

valid from:
1805310935

E) GREENLAND AND ADJACENT WATERS ARE CONSIDERED HOSTILE AREAS BY THE CIVIL AVIATION AUTHORITY (TBST). THREE MAJOR REASONS CONTRIBUTE TO DEFINING THE AREA AS HOSTILE: A SAFE FORCED LANDING CANNOT BE ACCOMPLISHED BECAUSE THE SURFACE IS INADEQUATE. THE HELICOPTER OCCUPANTS CANNOT BE ADEQUATELY PROTECTED FROM THE ELEMENTS. SEARCH AND RESCUE RESPONSE/CAPABILITY ARE NOT PROVIDED CONSISTENT WITH ANTICIPATED EXPOSURE.

valid to:
PERM




ICAO
BGGL (SONDRESTROM FIR)

FIR
BGGL

Notam_id:
BGA0601/19

valid from:
2001300000

E) AIP GREENLAND AIRAC AMDT EFFECTIVE DATE 30 JAN 2020: NIL.

valid to:
2002122359




ICAO
BGGH (NUUK)

FIR
BGGL

Notam_id:
BGB0084/20

valid from:
2001211253

E) LIGHTING ON RWY DESIGNATION SIGNS U/S.

valid to:
2002281500EST




ICAO
BGGH (NUUK)

FIR
BGGL

Notam_id:
BGB0819/19

valid from:
1912161442

E) BGGH AFIS FREQ 119.100 MHZ LIMITED RADIOCOVERAGE WITHIN TIZ TO THE NE, E, SE AND S.

valid to:
2003011200EST


Replacing:
BGB0814/19


Copyright Naviair   2003-2016